Airfield :
LOGIN :

Register | Disclaimer

   EN    FR    IT 

 










Legend :    VFR   Marginal VFR   IFR   Intensive IFR   Very Intensive IFR
Visi :
Ceiling :
>= 8 km
>= 3000ft
5 to 8 km
1000 to 3000 ft
1500m to 5 km
500 to 1000 ft
800 to 1500m
200 to 500 ft
< 800m
< 200 ft
Symbols :   Thunderstorms  Fog  Heavy snow  Heavy precipitations  Wind > 20 kt
SIGMETs :     Misc.  Thunderstorms  Icing  Turbulence  Mountain Waves  Volcanic Ashes







- Airport Elevation : 584 ft
- Download approach charts


LFPV - Villacoublay Vélizy

CURRENT METAR :
  • 181800Z AUTO 14004KT 9999 SCT022 01/M02 Q1017 NOSIG

EXPIRED METARs :
  • 181730Z AUTO 14003KT 9999 BKN023 01/M02 Q1017 NOSIG
  • 181700Z AUTO 15002KT 9999 BKN024 02/M02 Q1017 NOSIG
  • 181630Z AUTO 16002KT 9999 FEW024 02/M02 Q1017 NOSIG
  • 181600Z AUTO 16005KT 9999 FEW024 03/M02 Q1017 NOSIG
  • 181530Z AUTO 17006KT 130V190 CAVOK 04/M02 Q1017 NOSIG

TAF TAF LFPV
Valid from the 18 at 15:00 until the 19 at 15:00 UTC


181400Z 1815/1915 14005KT CAVOK
PROB30
TEMPO 1820/1905 3000 BR OVC004
BECMG 1912/1914 BKN015
TEMPO 1914/1915 3000 RASN
No reported NOTAMs for that airfield.



MET'MAP, your aeronautical weather chart ! - Copyright ORBIFLY December 2007 - Disclaimer

ORBIFLY MET'MAP TEAM :

Programming & Development : Alexandra Zaïnal
Concept & Development : Baudouin d'Aumeries
Co-Development & Prog : Marc-Olivier Méhu
Technical & hardware support : Manuel Goepfert

Contact : metmap@orbifly.com




SOURCES & CREDITS :

   NOAA